createdAt,value
2022-10-20T00:01:51.958Z,48.69
2022-10-20T00:04:18.618Z,48.16
2022-10-20T00:06:45.201Z,47.95
2022-10-20T00:09:11.820Z,48.07
2022-10-20T00:11:38.595Z,48.13
2022-10-20T00:14:05.761Z,48.08
2022-10-20T00:16:36.157Z,48.16
2022-10-20T00:19:02.972Z,48.47
2022-10-20T00:21:29.723Z,48.02
2022-10-20T00:24:00.137Z,48.43
2022-10-20T00:26:27.884Z,48.79
2022-10-20T00:28:55.481Z,48.73
2022-10-20T00:31:23.727Z,47.78
2022-10-20T00:33:50.469Z,48.45
2022-10-20T00:36:18.705Z,48.75
2022-10-20T00:38:45.742Z,48.88
2022-10-20T00:41:20.538Z,48.59
2022-10-20T00:43:51.646Z,48.62
2022-10-20T00:46:24.674Z,48.58
2022-10-20T00:48:55.100Z,48.23
2022-10-20T00:51:24.784Z,48.58
2022-10-20T00:53:53.854Z,48.25
2022-10-20T00:56:22.508Z,48.71
2022-10-20T00:58:50.241Z,48.63
2022-10-20T01:01:17.286Z,48.54
2022-10-20T01:03:49.518Z,48.23
2022-10-20T01:06:18.817Z,48.73
2022-10-20T01:08:45.720Z,48.19
2022-10-20T01:11:39.775Z,48.27
2022-10-20T01:14:15.699Z,48.20
2022-10-20T01:16:47.960Z,48.45
2022-10-20T01:19:33.856Z,48.21
2022-10-20T01:22:09.871Z,48.31
2022-10-20T01:24:53.505Z,48.19
2022-10-20T01:27:25.426Z,48.79
2022-10-20T01:30:03.262Z,47.87
2022-10-20T01:33:07.158Z,48.25
2022-10-20T01:36:01.913Z,48.67
2022-10-20T01:38:42.031Z,48.08
2022-10-20T01:41:40.841Z,48.62
2022-10-20T01:44:11.991Z,48.10
2022-10-20T01:46:42.507Z,48.68
2022-10-20T01:49:10.377Z,48.25
2022-10-20T01:51:37.225Z,48.41
2022-10-20T01:54:03.865Z,48.57
2022-10-20T01:56:56.079Z,48.13
2022-10-20T01:59:57.465Z,48.56
2022-10-20T02:02:42.554Z,48.42
2022-10-20T02:05:38.548Z,48.63
2022-10-20T02:08:16.602Z,47.84
2022-10-20T02:10:57.591Z,48.30
2022-10-20T02:13:25.546Z,48.03
2022-10-20T02:15:56.089Z,47.97
2022-10-20T02:18:28.262Z,47.84
2022-10-20T02:20:58.424Z,47.71
2022-10-20T02:23:25.196Z,48.15
2022-10-20T02:25:54.263Z,47.82
2022-10-20T02:28:22.299Z,47.79
2022-10-20T02:30:48.982Z,48.35
2022-10-20T02:33:17.500Z,47.62
2022-10-20T02:35:51.557Z,48.27
2022-10-20T02:38:18.136Z,48.16
2022-10-20T02:40:44.941Z,47.81
2022-10-20T02:43:11.509Z,47.70
2022-10-20T02:45:38.173Z,48.34
2022-10-20T02:48:07.598Z,47.92
2022-10-20T02:50:35.237Z,47.67
2022-10-20T02:53:02.023Z,47.86
2022-10-20T02:55:28.627Z,47.86
2022-10-20T02:57:55.216Z,47.77
2022-10-20T03:00:21.854Z,48.08
2022-10-20T03:02:48.424Z,48.16
2022-10-20T03:05:15.151Z,47.79
2022-10-20T03:07:41.814Z,47.87
2022-10-20T03:10:09.068Z,48.24
2022-10-20T03:12:35.619Z,47.61
2022-10-20T03:15:02.192Z,47.93
2022-10-20T03:17:28.848Z,48.10
2022-10-20T03:19:55.447Z,47.99
2022-10-20T03:22:22.078Z,48.18
2022-10-20T03:24:48.670Z,47.58
2022-10-20T03:27:15.380Z,47.63
2022-10-20T03:29:41.931Z,47.99
2022-10-20T03:32:08.512Z,48.18
2022-10-20T03:34:35.095Z,47.98
2022-10-20T03:37:01.847Z,47.53
2022-10-20T03:39:28.413Z,47.91
2022-10-20T03:41:57.458Z,47.95
2022-10-20T03:44:24.653Z,48.11
2022-10-20T03:46:51.339Z,47.95
2022-10-20T03:49:17.907Z,47.63
2022-10-20T03:51:44.544Z,47.50
2022-10-20T03:54:11.105Z,47.80
2022-10-20T03:56:37.677Z,47.65
2022-10-20T04:01:35.769Z,48.02
2022-10-20T04:04:02.398Z,48.00
2022-10-20T04:06:29.106Z,48.07
2022-10-20T04:08:55.767Z,48.00
2022-10-20T04:11:22.395Z,47.45
2022-10-20T04:13:48.994Z,47.47
2022-10-20T04:16:15.641Z,47.26
2022-10-20T04:18:42.288Z,47.94
2022-10-20T04:21:08.931Z,47.61
2022-10-20T04:23:35.612Z,47.56
2022-10-20T04:26:09.660Z,47.50
2022-10-20T04:28:36.269Z,48.07
2022-10-20T04:31:02.827Z,47.52
2022-10-20T04:33:29.520Z,47.70
2022-10-20T04:36:03.886Z,48.00
2022-10-20T04:38:31.568Z,47.97
2022-10-20T04:41:03.313Z,47.92
2022-10-20T04:43:32.163Z,47.47
2022-10-20T04:46:06.920Z,47.90
2022-10-20T04:48:35.451Z,47.55
2022-10-20T04:51:08.371Z,47.89
2022-10-20T04:53:35.117Z,47.91
2022-10-20T04:56:02.431Z,47.52
2022-10-20T04:58:29.022Z,47.85
2022-10-20T05:01:04.697Z,47.17
2022-10-20T05:03:31.321Z,47.18
2022-10-20T05:06:15.254Z,47.48
2022-10-20T05:08:44.155Z,47.45
2022-10-20T05:11:11.473Z,48.07
2022-10-20T05:13:38.125Z,47.94
2022-10-20T05:16:05.444Z,47.88
2022-10-20T05:18:32.768Z,47.62
2022-10-20T05:21:14.530Z,47.27
2022-10-20T05:23:42.364Z,47.12
2022-10-20T05:26:15.566Z,47.42
2022-10-20T05:28:50.204Z,47.62
2022-10-20T05:31:18.090Z,47.45
2022-10-20T05:33:47.181Z,47.67
2022-10-20T05:36:19.376Z,48.08
2022-10-20T05:38:49.158Z,47.32
2022-10-20T05:41:17.813Z,47.26
2022-10-20T05:43:52.949Z,47.39
2022-10-20T05:46:20.614Z,47.57
2022-10-20T05:48:47.709Z,47.20
2022-10-20T05:51:16.774Z,47.81
2022-10-20T05:53:44.577Z,47.72
2022-10-20T05:56:14.018Z,47.45
2022-10-20T05:58:42.330Z,47.11
2022-10-20T06:01:13.895Z,47.43
2022-10-20T06:03:40.492Z,47.31
2022-10-20T06:06:07.069Z,47.92
2022-10-20T06:08:34.628Z,47.50
2022-10-20T06:11:06.713Z,47.36
2022-10-20T06:13:34.117Z,47.76
2022-10-20T06:16:03.354Z,47.73
2022-10-20T06:18:30.956Z,47.46
2022-10-20T06:21:02.055Z,47.54
2022-10-20T06:23:28.779Z,47.38
2022-10-20T06:25:55.962Z,47.34
2022-10-20T06:28:22.565Z,47.44
2022-10-20T06:30:49.147Z,47.56
2022-10-20T06:33:16.942Z,47.25
2022-10-20T06:35:43.536Z,46.81
2022-10-20T06:38:10.178Z,46.78
2022-10-20T06:40:36.819Z,46.88
2022-10-20T06:43:03.440Z,47.48
2022-10-20T06:45:30.011Z,47.20
2022-10-20T06:47:56.712Z,47.39
2022-10-20T06:50:23.289Z,46.62
2022-10-20T06:52:49.936Z,47.27
2022-10-20T06:55:16.587Z,46.98
2022-10-20T06:57:43.140Z,47.26
2022-10-20T07:00:10.065Z,47.49
2022-10-20T07:02:39.377Z,46.87
2022-10-20T07:05:06.520Z,46.61
2022-10-20T07:07:33.179Z,46.94
2022-10-20T07:09:59.766Z,47.26
2022-10-20T07:12:26.334Z,46.52
2022-10-20T07:14:52.877Z,46.56
2022-10-20T07:17:19.444Z,47.05
2022-10-20T07:19:45.988Z,47.02
2022-10-20T07:22:12.557Z,46.70
2022-10-20T07:24:39.123Z,46.59
2022-10-20T07:27:05.688Z,46.97
2022-10-20T07:32:05.442Z,46.25
2022-10-20T07:34:32.006Z,46.53
2022-10-20T07:36:58.718Z,46.47
2022-10-20T07:39:26.140Z,45.82
2022-10-20T07:41:52.963Z,45.71
2022-10-20T07:44:19.690Z,44.95
2022-10-20T07:46:46.314Z,44.57
2022-10-20T07:51:59.854Z,44.49
2022-10-20T07:54:26.416Z,43.88
2022-10-20T07:56:53.165Z,43.64
2022-10-20T07:59:19.976Z,43.73
2022-10-20T08:01:46.801Z,42.90
2022-10-20T08:04:13.429Z,42.15
2022-10-20T08:06:39.988Z,41.99
2022-10-20T08:09:07.455Z,41.54
2022-10-20T08:11:34.574Z,40.83
2022-10-20T08:14:01.366Z,40.58
2022-10-20T08:16:30.808Z,40.19
2022-10-20T08:18:59.211Z,39.96
2022-10-20T08:21:25.859Z,39.86
2022-10-20T08:23:52.588Z,39.77
2022-10-20T08:26:25.340Z,39.31
2022-10-20T08:28:54.096Z,39.29
2022-10-20T08:31:21.555Z,38.76
2022-10-20T08:33:52.307Z,38.31
2022-10-20T08:36:19.915Z,37.83
2022-10-20T08:38:46.478Z,38.49
2022-10-20T08:41:22.884Z,38.39
2022-10-20T08:43:51.900Z,38.66
2022-10-20T08:46:20.752Z,39.90
2022-10-20T08:48:48.221Z,41.22
2022-10-20T08:51:21.207Z,42.66
2022-10-20T08:53:51.727Z,42.92
2022-10-20T08:56:22.882Z,43.45
2022-10-20T08:58:49.809Z,43.40
2022-10-20T09:01:33.052Z,43.66
2022-10-20T09:04:22.012Z,43.86
2022-10-20T09:06:53.944Z,44.27
2022-10-20T09:09:22.920Z,43.92
2022-10-20T09:11:50.092Z,44.52
2022-10-20T09:14:16.806Z,44.17
2022-10-20T09:16:59.375Z,44.63
2022-10-20T09:19:28.255Z,44.33
2022-10-20T09:22:05.484Z,43.91
2022-10-20T09:24:34.817Z,42.61
2022-10-20T09:27:39.984Z,42.45
2022-10-20T09:30:21.641Z,42.82
2022-10-20T09:32:48.776Z,41.96
2022-10-20T09:35:15.409Z,39.74
2022-10-20T09:37:43.653Z,40.30
2022-10-20T09:40:18.216Z,41.11
2022-10-20T09:42:55.256Z,39.20
2022-10-20T09:45:33.059Z,37.42
2022-10-20T09:48:15.238Z,36.46
2022-10-20T09:50:49.066Z,38.36
2022-10-20T09:53:20.999Z,37.59
2022-10-20T09:55:50.496Z,38.62
2022-10-20T09:58:24.373Z,40.42
2022-10-20T10:01:04.278Z,41.15
2022-10-20T10:03:39.675Z,40.77
2022-10-20T10:06:30.822Z,41.13
2022-10-20T10:09:00.474Z,40.91
2022-10-20T10:11:34.277Z,39.59
2022-10-20T10:14:01.756Z,36.56
2022-10-20T10:16:39.548Z,35.48
2022-10-20T10:19:06.912Z,35.82
2022-10-20T10:21:51.694Z,37.63
2022-10-20T10:24:39.400Z,41.06
2022-10-20T10:27:19.332Z,43.02
2022-10-20T10:29:46.378Z,42.52
2022-10-20T10:32:15.147Z,42.21
2022-10-20T10:35:03.438Z,41.70
2022-10-20T10:37:34.718Z,41.70
2022-10-20T10:40:12.062Z,42.36
2022-10-20T10:43:29.810Z,43.00
2022-10-20T10:46:20.445Z,43.25
2022-10-20T10:48:58.881Z,43.75
2022-10-20T10:51:40.238Z,43.22
2022-10-20T10:54:15.190Z,44.11
2022-10-20T10:56:49.674Z,44.39
2022-10-20T10:59:34.940Z,44.08
2022-10-20T11:02:10.480Z,43.70
2022-10-20T11:05:00.374Z,42.46
2022-10-20T11:07:55.879Z,42.19
2022-10-20T11:10:50.973Z,43.33
2022-10-20T11:13:26.024Z,43.70
2022-10-20T11:16:14.952Z,44.24
2022-10-20T11:19:29.213Z,43.98
2022-10-20T11:21:58.740Z,43.86
2022-10-20T11:24:40.543Z,44.16
2022-10-20T11:27:24.547Z,43.85
2022-10-20T11:30:08.083Z,44.68
2022-10-20T11:32:52.956Z,44.24
2022-10-20T11:35:31.986Z,44.27
2022-10-20T11:38:23.777Z,45.04
2022-10-20T11:41:06.261Z,45.14
2022-10-20T11:43:50.842Z,45.40
2022-10-20T11:46:42.558Z,44.43
2022-10-20T11:49:12.271Z,43.96
2022-10-20T11:51:41.495Z,42.73
2022-10-20T11:54:14.356Z,43.29
2022-10-20T11:56:49.888Z,42.10
2022-10-20T11:59:48.004Z,42.44
2022-10-20T12:02:23.595Z,43.42
2022-10-20T12:05:10.605Z,44.39
2022-10-20T12:08:35.685Z,42.80
2022-10-20T12:11:39.501Z,37.70
2022-10-20T12:14:15.069Z,36.00
2022-10-20T12:16:53.665Z,35.71
2022-10-20T12:19:28.264Z,35.58
2022-10-20T12:21:56.777Z,37.09
2022-10-20T12:24:52.174Z,37.45
2022-10-20T12:27:27.705Z,37.09
2022-10-20T12:29:56.207Z,36.69
2022-10-20T12:32:25.486Z,36.91
2022-10-20T12:35:02.460Z,36.60
2022-10-20T12:37:36.407Z,35.92
2022-10-20T12:40:09.258Z,35.95
2022-10-20T12:42:46.406Z,36.71
2022-10-20T12:45:18.770Z,36.95
2022-10-20T12:47:52.152Z,36.98
2022-10-20T12:50:36.888Z,37.86
2022-10-20T12:53:16.959Z,37.93
2022-10-20T12:55:48.390Z,37.58
2022-10-20T12:58:17.960Z,36.97
2022-10-20T13:00:47.605Z,37.11
2022-10-20T13:03:36.130Z,37.07
2022-10-20T13:06:22.974Z,37.25
2022-10-20T13:09:04.811Z,37.52
2022-10-20T13:11:37.730Z,36.72
2022-10-20T13:14:13.209Z,38.03
2022-10-20T13:16:48.857Z,38.18
2022-10-20T13:19:22.663Z,38.14
2022-10-20T13:21:50.504Z,38.04
2022-10-20T13:24:44.877Z,38.03
2022-10-20T13:27:12.004Z,38.03
2022-10-20T13:29:43.572Z,37.96
2022-10-20T13:32:26.654Z,37.33
2022-10-20T13:34:55.812Z,38.24
2022-10-20T13:38:07.655Z,38.12
2022-10-20T13:43:48.511Z,38.40
2022-10-20T13:46:42.299Z,39.04
2022-10-20T13:49:34.015Z,38.26
2022-10-20T13:52:06.060Z,38.64
2022-10-20T13:54:37.094Z,39.02
2022-10-20T13:57:04.208Z,39.12
2022-10-20T13:59:30.960Z,38.87
2022-10-20T14:02:18.971Z,38.46
2022-10-20T14:04:45.551Z,38.86
2022-10-20T14:07:13.576Z,38.58
2022-10-20T14:09:45.308Z,39.26
2022-10-20T14:12:26.256Z,39.23
2022-10-20T14:15:01.426Z,39.41
2022-10-20T14:17:28.694Z,39.71
2022-10-20T14:20:21.317Z,40.29
2022-10-20T14:22:48.536Z,39.66
2022-10-20T14:25:16.136Z,39.84
2022-10-20T14:27:42.987Z,39.95
2022-10-20T14:30:15.669Z,40.00
2022-10-20T14:32:44.262Z,39.88
2022-10-20T14:35:42.604Z,40.24
2022-10-20T14:38:31.326Z,40.53
2022-10-20T14:40:59.176Z,40.69
2022-10-20T14:43:47.280Z,40.56
2022-10-20T14:46:30.415Z,40.52
2022-10-20T14:48:59.883Z,40.63
2022-10-20T14:51:35.302Z,40.48
2022-10-20T14:54:37.960Z,40.86
2022-10-20T14:57:10.457Z,41.08
2022-10-20T15:00:04.594Z,41.46
2022-10-20T15:02:40.013Z,41.87
2022-10-20T15:05:31.462Z,42.34
2022-10-20T15:08:07.169Z,42.16
2022-10-20T15:10:33.827Z,42.17
2022-10-20T15:13:00.508Z,42.54
2022-10-20T15:15:35.732Z,43.20
2022-10-20T15:18:14.769Z,42.82
2022-10-20T15:20:43.421Z,42.91
2022-10-20T15:23:13.489Z,43.37
2022-10-20T15:25:50.362Z,44.13
2022-10-20T15:28:40.430Z,43.97
2022-10-20T15:31:13.117Z,44.28
2022-10-20T15:33:40.823Z,44.12
2022-10-20T15:36:16.348Z,44.26
2022-10-20T15:38:43.463Z,44.87
2022-10-20T15:41:18.152Z,44.91
2022-10-20T15:43:44.694Z,45.03
2022-10-20T15:46:12.703Z,44.96
2022-10-20T15:48:39.799Z,44.57
2022-10-20T15:51:17.224Z,44.92
2022-10-20T15:53:46.058Z,44.91
2022-10-20T15:56:12.622Z,45.09
2022-10-20T15:58:39.945Z,45.12
2022-10-20T16:01:07.758Z,45.36
2022-10-20T16:03:35.747Z,45.38
2022-10-20T16:06:02.293Z,44.66
2022-10-20T16:08:28.975Z,44.87
2022-10-20T16:10:56.172Z,45.22
2022-10-20T16:13:22.740Z,45.10
2022-10-20T16:15:49.287Z,45.31
2022-10-20T16:18:15.835Z,44.53
2022-10-20T16:20:42.413Z,44.57
2022-10-20T16:23:09.003Z,44.40
2022-10-20T16:25:35.580Z,44.70
2022-10-20T16:28:02.136Z,44.45
2022-10-20T16:30:28.694Z,44.88
2022-10-20T16:32:56.048Z,44.83
2022-10-20T16:35:22.633Z,44.48
2022-10-20T16:37:49.183Z,44.53
2022-10-20T16:40:15.847Z,44.66
2022-10-20T16:42:42.439Z,44.87
2022-10-20T16:45:09.518Z,44.22
2022-10-20T16:47:36.292Z,44.66
2022-10-20T16:50:03.335Z,44.51
2022-10-20T16:52:29.899Z,44.86
2022-10-20T16:54:56.424Z,44.91
2022-10-20T16:57:23.026Z,44.48
2022-10-20T16:59:52.539Z,45.39
2022-10-20T17:02:19.728Z,45.02
2022-10-20T17:04:49.936Z,45.39
2022-10-20T17:07:17.214Z,45.46
2022-10-20T17:09:43.827Z,45.16
2022-10-20T17:12:10.476Z,45.62
2022-10-20T17:14:38.448Z,45.22
2022-10-20T17:17:05.016Z,45.36
2022-10-20T17:19:31.562Z,45.33
2022-10-20T17:21:58.235Z,45.52
2022-10-20T17:24:24.818Z,45.32
2022-10-20T17:26:51.500Z,45.55
2022-10-20T17:29:22.276Z,45.60
2022-10-20T17:31:51.853Z,45.07
2022-10-20T17:34:18.447Z,45.64
2022-10-20T17:36:44.990Z,44.93
2022-10-20T17:39:14.684Z,45.73
2022-10-20T17:41:42.643Z,45.37
2022-10-20T17:44:09.709Z,45.07
2022-10-20T17:46:36.397Z,45.43
2022-10-20T17:49:03.016Z,45.19
2022-10-20T17:51:33.422Z,45.16
2022-10-20T17:54:01.718Z,45.52
2022-10-20T17:56:38.108Z,45.85
2022-10-20T17:59:07.385Z,45.21
2022-10-20T18:01:39.183Z,45.88
2022-10-20T18:04:11.294Z,45.02
2022-10-20T18:06:39.204Z,45.25
2022-10-20T18:09:10.782Z,45.65
2022-10-20T18:11:38.960Z,44.87
2022-10-20T18:14:06.390Z,44.80
2022-10-20T18:16:36.856Z,45.11
2022-10-20T18:19:03.952Z,45.40
2022-10-20T18:21:31.902Z,45.18
2022-10-20T18:24:02.421Z,45.47
2022-10-20T18:26:31.500Z,44.92
2022-10-20T18:28:59.889Z,44.93
2022-10-20T18:31:29.204Z,45.11
2022-10-20T18:34:02.565Z,45.45
2022-10-20T18:36:33.341Z,44.94
2022-10-20T18:39:00.586Z,45.14
2022-10-20T18:41:30.477Z,44.87
2022-10-20T18:43:59.749Z,45.27
2022-10-20T18:46:31.634Z,45.00
2022-10-20T18:49:00.147Z,45.69
2022-10-20T18:51:27.752Z,44.96
2022-10-20T18:53:56.851Z,45.19
2022-10-20T18:56:26.338Z,45.30
2022-10-20T18:58:55.333Z,45.21
2022-10-20T19:01:24.607Z,45.59
2022-10-20T19:03:53.375Z,45.08
2022-10-20T19:06:24.688Z,45.07
2022-10-20T19:08:56.880Z,45.78
2022-10-20T19:11:26.117Z,45.29
2022-10-20T19:13:53.096Z,45.44
2022-10-20T19:16:22.812Z,45.69
2022-10-20T19:18:51.386Z,45.64
2022-10-20T19:21:18.809Z,45.53
2022-10-20T19:23:50.023Z,46.09
2022-10-20T19:26:22.971Z,45.96
2022-10-20T19:28:58.578Z,45.34
2022-10-20T19:31:36.793Z,45.62
2022-10-20T19:34:14.045Z,46.00
2022-10-20T19:36:41.525Z,45.72
2022-10-20T19:39:10.394Z,45.16
2022-10-20T19:41:37.252Z,45.76
2022-10-20T19:44:03.868Z,45.92
2022-10-20T19:46:30.541Z,45.51
2022-10-20T19:48:57.561Z,45.73
2022-10-20T19:51:24.238Z,45.89
2022-10-20T19:53:50.987Z,45.82
2022-10-20T19:56:17.938Z,45.97
2022-10-20T19:58:46.815Z,45.47
2022-10-20T20:01:14.580Z,45.51
2022-10-20T20:03:41.251Z,45.66
2022-10-20T20:06:11.284Z,45.80
2022-10-20T20:08:38.155Z,45.60
2022-10-20T20:11:05.796Z,45.22
2022-10-20T20:13:32.781Z,45.80
2022-10-20T20:16:08.130Z,46.02
2022-10-20T20:18:35.954Z,45.68
2022-10-20T20:21:05.063Z,45.63
2022-10-20T20:23:54.469Z,45.79
2022-10-20T20:26:20.963Z,45.98
2022-10-20T20:28:47.551Z,45.55
2022-10-20T20:31:14.334Z,45.45
2022-10-20T20:33:40.908Z,45.88
2022-10-20T20:36:08.665Z,45.25
2022-10-20T20:38:37.248Z,45.92
2022-10-20T20:41:06.928Z,45.91
2022-10-20T20:43:35.226Z,45.19
2022-10-20T20:46:06.771Z,45.51
2022-10-20T20:48:35.323Z,45.28
2022-10-20T20:51:02.186Z,45.30
2022-10-20T20:53:28.796Z,45.61
2022-10-20T20:56:00.153Z,45.34
2022-10-20T20:58:28.420Z,45.47
2022-10-20T21:01:05.843Z,45.62
2022-10-20T21:03:33.491Z,45.38
2022-10-20T21:06:08.209Z,45.97
2022-10-20T21:08:35.841Z,45.57
2022-10-20T21:11:16.855Z,45.46
2022-10-20T21:13:44.494Z,45.85
2022-10-20T21:16:19.598Z,45.99
2022-10-20T21:18:48.608Z,45.32
2022-10-20T21:21:17.788Z,45.75
2022-10-20T21:23:44.573Z,45.82
2022-10-20T21:26:12.863Z,46.17
2022-10-20T21:28:40.443Z,45.74
2022-10-20T21:31:09.146Z,45.54
2022-10-20T21:33:37.448Z,45.31
2022-10-20T21:36:10.514Z,45.79
2022-10-20T21:38:38.913Z,45.94
2022-10-20T21:41:06.387Z,46.01
2022-10-20T21:43:35.035Z,46.02
2022-10-20T21:46:15.391Z,45.19
2022-10-20T21:48:43.132Z,45.92
2022-10-20T21:51:18.993Z,45.83
2022-10-20T21:53:46.063Z,45.39
2022-10-20T21:56:13.602Z,45.92
2022-10-20T21:58:40.941Z,45.81
2022-10-20T22:01:13.177Z,45.70
2022-10-20T22:03:40.413Z,45.81
2022-10-20T22:06:09.286Z,45.49
2022-10-20T22:08:37.653Z,46.07
2022-10-20T22:11:10.662Z,45.59
2022-10-20T22:13:37.779Z,45.99
2022-10-20T22:16:11.450Z,46.14
2022-10-20T22:18:38.086Z,45.37
2022-10-20T22:21:12.535Z,45.46
2022-10-20T22:23:40.266Z,45.30
2022-10-20T22:26:06.966Z,45.93
2022-10-20T22:28:33.608Z,46.37
2022-10-20T22:33:27.767Z,45.94
2022-10-20T22:35:54.390Z,46.05
2022-10-20T22:38:21.101Z,45.91
2022-10-20T22:40:47.944Z,45.62
2022-10-20T22:43:14.589Z,46.18
2022-10-20T22:45:41.251Z,46.06
2022-10-20T22:48:07.940Z,46.04
2022-10-20T22:50:34.566Z,45.50
2022-10-20T22:53:01.126Z,46.11
2022-10-20T22:55:27.716Z,45.56
2022-10-20T22:57:54.373Z,45.50
2022-10-20T23:00:21.019Z,45.75
2022-10-20T23:02:47.582Z,45.46
2022-10-20T23:05:14.224Z,45.63
2022-10-20T23:07:41.116Z,45.39
2022-10-20T23:10:08.261Z,46.17
2022-10-20T23:12:35.239Z,45.75
2022-10-20T23:15:01.999Z,46.20
2022-10-20T23:17:28.586Z,46.15
2022-10-20T23:19:55.149Z,45.73
2022-10-20T23:22:21.728Z,45.90
2022-10-20T23:24:48.312Z,46.25
2022-10-20T23:27:14.957Z,46.18
2022-10-20T23:29:41.534Z,46.06
2022-10-20T23:32:08.186Z,46.31
2022-10-20T23:37:06.214Z,45.89
2022-10-20T23:39:32.769Z,45.62
2022-10-20T23:42:02.335Z,45.93
2022-10-20T23:44:32.882Z,45.62
2022-10-20T23:46:59.484Z,45.55
2022-10-20T23:49:26.045Z,46.24
2022-10-20T23:51:52.588Z,45.87
2022-10-20T23:54:19.275Z,46.26
2022-10-20T23:56:45.847Z,45.66
2022-10-20T23:59:12.517Z,45.87
